Time;durP1;ratioP1;P1;durP2;ratioP2;P2;SDS_P1;SDS_P2;PMS_P1;PMS_P2;Temp;Humidity;BMP_temperature;BMP_pressure;BME280_temperature;BME280_humidity;BME280_pressure;Samples;Min_cycle;Max_cycle;Signal;HPM_P1;HPM_P2
2023/01/13 00:01:33;;;;;;;7.35;2.35;;;;;;;;;;5032221;28;20048;-78
2023/01/13 00:03:59;;;;;;;6.78;2.30;;;;;;;;;;5015970;28;20029;-78
2023/01/13 00:06:25;;;;;;;9.95;2.50;;;;;;;;;;5016080;28;20033;-78
2023/01/13 00:08:51;;;;;;;6.68;2.20;;;;;;;;;;5015648;28;20037;-78
2023/01/13 00:11:18;;;;;;;10.70;2.58;;;;;;;;;;5031866;28;20216;-78
2023/01/13 00:13:43;;;;;;;6.18;2.38;;;;;;;;;;5033332;28;20029;-78
2023/01/13 00:16:11;;;;;;;7.53;2.38;;;;;;;;;;5032391;28;20036;-78
2023/01/13 00:18:36;;;;;;;9.73;2.97;;;;;;;;;;5032019;28;20029;-78
2023/01/13 00:21:03;;;;;;;10.77;2.67;;;;;;;;;;5033216;28;20159;-78
2023/01/13 00:23:30;;;;;;;9.35;2.88;;;;;;;;;;5033088;28;20418;-78
2023/01/13 00:25:57;;;;;;;12.05;2.75;;;;;;;;;;5015576;28;20025;-78
2023/01/13 00:28:22;;;;;;;10.00;2.50;;;;;;;;;;5015639;28;20379;-78
2023/01/13 00:30:48;;;;;;;8.52;2.63;;;;;;;;;;5015189;28;20034;-78
2023/01/13 00:33:13;;;;;;;11.25;2.88;;;;;;;;;;5033260;28;20026;-78
2023/01/13 00:35:38;;;;;;;10.70;2.35;;;;;;;;;;5015329;28;20443;-78
2023/01/13 00:38:04;;;;;;;10.32;3.13;;;;;;;;;;5033210;28;20102;-78
2023/01/13 00:40:29;;;;;;;13.90;2.90;;;;;;;;;;5032982;28;20108;-78
2023/01/13 00:45:39;;;;;;;11.48;3.10;;;;;;;;;;5017978;28;20080;-78
2023/01/13 00:48:04;;;;;;;10.43;2.90;;;;;;;;;;5015286;28;20033;-78
2023/01/13 00:50:29;;;;;;;10.82;2.75;;;;;;;;;;4998880;28;20033;-78
2023/01/13 00:52:59;;;;;;;9.35;2.97;;;;;;;;;;5015171;28;20033;-78
2023/01/13 00:55:24;;;;;;;13.63;3.05;;;;;;;;;;5032764;28;20030;-78
2023/01/13 00:57:49;;;;;;;11.10;3.13;;;;;;;;;;5032954;28;20030;-78
2023/01/13 01:00:15;;;;;;;9.52;2.67;;;;;;;;;;5015475;28;20472;-78
2023/01/13 01:02:40;;;;;;;11.75;2.53;;;;;;;;;;5032732;28;20029;-78
2023/01/13 01:05:06;;;;;;;11.15;3.03;;;;;;;;;;5032767;28;20076;-78
2023/01/13 01:07:31;;;;;;;10.77;2.90;;;;;;;;;;5048137;28;20068;-78
2023/01/13 01:09:57;;;;;;;12.82;2.75;;;;;;;;;;5015336;28;20481;-78
2023/01/13 01:12:22;;;;;;;9.15;2.90;;;;;;;;;;5014991;28;20037;-77
2023/01/13 01:14:47;;;;;;;10.80;2.88;;;;;;;;;;5014938;28;20446;-78
2023/01/13 01:17:13;;;;;;;11.80;3.42;;;;;;;;;;5032631;28;20124;-78
2023/01/13 01:19:38;;;;;;;11.43;3.17;;;;;;;;;;5015031;28;20037;-78
2023/01/13 01:22:04;;;;;;;8.52;2.72;;;;;;;;;;5044327;28;20124;-77
2023/01/13 01:24:29;;;;;;;9.80;3.08;;;;;;;;;;5068476;28;20108;-77
2023/01/13 01:26:55;;;;;;;8.02;2.50;;;;;;;;;;5051222;28;20037;-77
2023/01/13 01:29:20;;;;;;;8.05;2.90;;;;;;;;;;5034431;28;20044;-77
2023/01/13 01:31:45;;;;;;;9.45;3.03;;;;;;;;;;5052299;28;20040;-77
2023/01/13 01:34:11;;;;;;;9.60;2.40;;;;;;;;;;5051110;28;20117;-77
2023/01/13 01:36:37;;;;;;;12.60;2.92;;;;;;;;;;5051073;28;20104;-77
2023/01/13 01:39:03;;;;;;;11.45;2.83;;;;;;;;;;5034507;28;20044;-77
2023/01/13 01:41:31;;;;;;;12.18;3.05;;;;;;;;;;5052256;28;20028;-77
2023/01/13 01:44:01;;;;;;;11.13;2.78;;;;;;;;;;5034766;28;20032;-77
2023/01/13 01:46:31;;;;;;;10.15;2.70;;;;;;;;;;5051270;28;20041;-77
2023/01/13 01:49:20;;;;;;;11.95;2.83;;;;;;;;;;5034686;28;20436;-77
2023/01/13 01:51:49;;;;;;;11.75;3.42;;;;;;;;;;5034637;28;20040;-77
2023/01/13 01:54:19;;;;;;;13.52;3.17;;;;;;;;;;5018290;28;20029;-77
2023/01/13 01:56:45;;;;;;;11.52;2.78;;;;;;;;;;5038409;28;20120;-77
2023/01/13 01:59:11;;;;;;;14.20;3.05;;;;;;;;;;5054574;28;20506;-77
2023/01/13 02:01:37;;;;;;;7.82;2.95;;;;;;;;;;5037803;28;20055;-77
2023/01/13 02:04:10;;;;;;;11.50;3.13;;;;;;;;;;5021306;28;20063;-77
2023/01/13 02:06:36;;;;;;;11.60;3.25;;;;;;;;;;5037847;28;20510;-78
2023/01/13 02:09:02;;;;;;;12.45;3.45;;;;;;;;;;5037681;28;20033;-77
2023/01/13 02:14:15;;;;;;;14.55;3.38;;;;;;;;;;5068960;28;20036;-78
2023/01/13 02:16:46;;;;;;;9.77;2.72;;;;;;;;;;5037579;28;20025;-77
2023/01/13 02:19:28;;;;;;;12.77;2.90;;;;;;;;;;5037580;28;20025;-78
2023/01/13 02:22:05;;;;;;;15.43;3.08;;;;;;;;;;5059982;28;20038;-79
2023/01/13 02:24:54;;;;;;;13.27;3.17;;;;;;;;;;5017590;28;20384;-79
2023/01/13 02:27:28;;;;;;;13.20;3.13;;;;;;;;;;5050642;28;20040;-77
2023/01/13 02:33:21;;;;;;;10.75;3.55;;;;;;;;;;5035122;28;20100;-79
2023/01/13 02:35:49;;;;;;;11.15;3.35;;;;;;;;;;5017313;28;20030;-78
2023/01/13 02:38:15;;;;;;;11.23;3.30;;;;;;;;;;5017278;28;20380;-79
2023/01/13 02:40:45;;;;;;;10.77;3.38;;;;;;;;;;5017208;28;20029;-79
2023/01/13 02:46:31;;;;;;;12.30;2.90;;;;;;;;;;5034766;28;20036;-79
2023/01/13 02:49:01;;;;;;;12.30;3.10;;;;;;;;;;5033663;28;20071;-79
2023/01/13 02:51:28;;;;;;;12.90;3.28;;;;;;;;;;5017086;28;20416;-78
2023/01/13 02:54:00;;;;;;;16.38;4.10;;;;;;;;;;5000461;28;20025;-79
2023/01/13 02:56:26;;;;;;;14.00;3.78;;;;;;;;;;5035064;28;20025;-79
2023/01/13 02:58:53;;;;;;;12.23;3.38;;;;;;;;;;5017188;28;20032;-79
2023/01/13 03:01:19;;;;;;;17.92;3.67;;;;;;;;;;5017157;28;20457;-78
2023/01/13 03:03:45;;;;;;;13.48;3.47;;;;;;;;;;5016812;28;20033;-78
2023/01/13 03:06:24;;;;;;;10.95;2.78;;;;;;;;;;5033227;28;20037;-78
2023/01/13 03:09:28;;;;;;;11.73;3.28;;;;;;;;;;5049769;28;20552;-78
2023/01/13 03:12:14;;;;;;;11.20;3.40;;;;;;;;;;5016704;28;20465;-78
2023/01/13 03:14:56;;;;;;;11.07;3.13;;;;;;;;;;5034358;28;20030;-78
2023/01/13 03:17:34;;;;;;;13.40;3.65;;;;;;;;;;5016660;28;20064;-78
2023/01/13 03:20:07;;;;;;;15.23;3.47;;;;;;;;;;5034656;28;20124;-78
2023/01/13 03:22:39;;;;;;;10.35;3.13;;;;;;;;;;5028802;28;20131;-80
2023/01/13 03:25:09;;;;;;;8.85;2.72;;;;;;;;;;5032897;28;20515;-78
2023/01/13 03:27:43;;;;;;;9.18;3.03;;;;;;;;;;5032694;28;20108;-78
2023/01/13 03:30:09;;;;;;;;;;;;;;;;;;5033345;28;20388;-77
2023/01/13 03:32:47;;;;;;;9.38;3.03;;;;;;;;;;5032637;28;19913;-78
2023/01/13 03:35:19;;;;;;;12.23;3.22;;;;;;;;;;5032637;28;20386;-78
2023/01/13 03:37:50;;;;;;;10.95;2.83;;;;;;;;;;5033282;28;20377;-79
2023/01/13 03:40:26;;;;;;;10.13;3.05;;;;;;;;;;5016506;28;20083;-79
2023/01/13 03:45:50;;;;;;;11.65;3.10;;;;;;;;;;5033053;28;20495;-79
2023/01/13 03:48:18;;;;;;;12.45;3.20;;;;;;;;;;5049413;28;20029;-79
2023/01/13 03:50:49;;;;;;;11.55;3.13;;;;;;;;;;5034528;28;20044;-79
2023/01/13 03:53:31;;;;;;;9.23;3.30;;;;;;;;;;5032352;28;20087;-79
2023/01/13 03:56:08;;;;;;;11.73;3.38;;;;;;;;;;5032532;28;20084;-79
2023/01/13 03:58:40;;;;;;;11.23;3.17;;;;;;;;;;5048866;28;20040;-78
2023/01/13 04:01:09;;;;;;;13.55;2.97;;;;;;;;;;5016184;28;20025;-78
2023/01/13 04:03:43;;;;;;;14.68;3.38;;;;;;;;;;5033762;28;20088;-78
2023/01/13 04:06:21;;;;;;;15.15;3.28;;;;;;;;;;5032445;28;20120;-78
2023/01/13 04:08:57;;;;;;;9.40;2.50;;;;;;;;;;5033727;28;20055;-78
2023/01/13 04:11:43;;;;;;;10.77;3.20;;;;;;;;;;5032117;28;20029;-78
2023/01/13 04:14:10;;;;;;;11.15;3.78;;;;;;;;;;5015644;28;20030;-79
2023/01/13 04:16:36;;;;;;;12.98;3.10;;;;;;;;;;5032154;28;20045;-79
2023/01/13 04:19:02;;;;;;;10.98;2.85;;;;;;;;;;5015083;28;20025;-79
2023/01/13 04:21:28;;;;;;;10.40;3.10;;;;;;;;;;5033186;28;20513;-78
2023/01/13 04:23:53;;;;;;;12.45;3.50;;;;;;;;;;5015818;28;20056;-78
2023/01/13 04:26:18;;;;;;;11.45;3.17;;;;;;;;;;5033736;28;20452;-78
2023/01/13 04:28:44;;;;;;;9.68;2.83;;;;;;;;;;5015309;28;20029;-78
2023/01/13 04:31:10;;;;;;;11.57;3.13;;;;;;;;;;5015319;28;20095;-78
2023/01/13 04:33:35;;;;;;;13.30;3.63;;;;;;;;;;5015691;28;20508;-78
2023/01/13 04:36:01;;;;;;;9.35;2.80;;;;;;;;;;4999244;28;20029;-77
2023/01/13 04:38:26;;;;;;;11.82;2.72;;;;;;;;;;5032018;28;20115;-78
2023/01/13 04:40:51;;;;;;;10.52;2.88;;;;;;;;;;4998983;28;20025;-78
2023/01/13 04:43:17;;;;;;;7.75;2.50;;;;;;;;;;5033029;28;20029;-79
2023/01/13 04:45:42;;;;;;;7.45;2.42;;;;;;;;;;5015260;28;20064;-79
2023/01/13 04:48:08;;;;;;;8.52;2.53;;;;;;;;;;5015483;28;20025;-79
2023/01/13 04:50:34;;;;;;;6.90;2.47;;;;;;;;;;5015660;28;20038;-78
2023/01/13 04:53:00;;;;;;;7.82;2.40;;;;;;;;;;4998620;28;20424;-79
2023/01/13 04:55:25;;;;;;;8.50;2.78;;;;;;;;;;5014954;28;20029;-78
2023/01/13 04:57:51;;;;;;;8.32;2.25;;;;;;;;;;5015285;28;20044;-78
2023/01/13 05:00:18;;;;;;;7.68;2.33;;;;;;;;;;5015366;28;20115;-79
2023/01/13 05:02:44;;;;;;;8.77;2.60;;;;;;;;;;5015440;28;20543;-78
2023/01/13 05:05:10;;;;;;;6.07;2.28;;;;;;;;;;5033180;28;20033;-79
2023/01/13 05:07:35;;;;;;;8.13;2.05;;;;;;;;;;5017180;28;20029;-78
2023/01/13 05:10:01;;;;;;;7.43;2.03;;;;;;;;;;5015463;28;20499;-78
2023/01/13 05:17:56;;;;;;;7.03;2.00;;;;;;;;;;5018209;28;20028;-79
2023/01/13 05:20:22;;;;;;;7.07;2.10;;;;;;;;;;5033544;28;20057;-78
2023/01/13 05:25:33;;;;;;;13.13;2.42;;;;;;;;;;5017952;28;20083;-77
2023/01/13 05:27:59;;;;;;;7.78;2.58;;;;;;;;;;5015213;28;20029;-77
2023/01/13 05:30:28;;;;;;;7.03;2.33;;;;;;;;;;5017880;28;20042;-78
2023/01/13 05:32:53;;;;;;;7.53;2.25;;;;;;;;;;5019496;28;20091;-78
2023/01/13 05:35:18;;;;;;;8.52;2.50;;;;;;;;;;5036660;28;20116;-77
2023/01/13 05:37:45;;;;;;;12.77;2.53;;;;;;;;;;5002445;28;20033;-78
2023/01/13 05:43:21;;;;;;;7.32;2.03;;;;;;;;;;5004129;28;20623;-78
2023/01/13 05:45:56;;;;;;;5.05;1.90;;;;;;;;;;5011508;28;20025;-78
2023/01/13 05:48:27;;;;;;;6.07;2.03;;;;;;;;;;5018037;28;20029;-78
2023/01/13 05:50:53;;;;;;;5.10;1.98;;;;;;;;;;5012444;28;20491;-78
2023/01/13 05:53:19;;;;;;;5.72;2.15;;;;;;;;;;4992216;28;20033;-77
2023/01/13 05:55:45;;;;;;;7.15;1.83;;;;;;;;;;5007457;28;20101;-77
2023/01/13 05:58:12;;;;;;;12.30;2.10;;;;;;;;;;5014973;28;20507;-76
2023/01/13 06:00:37;;;;;;;6.82;2.00;;;;;;;;;;5035447;28;20527;-77
2023/01/13 06:03:03;;;;;;;7.50;2.17;;;;;;;;;;5001918;28;20030;-78
2023/01/13 06:05:29;;;;;;;8.88;2.40;;;;;;;;;;5001966;28;20029;-78
2023/01/13 06:07:58;;;;;;;13.65;2.88;;;;;;;;;;5001845;28;20100;-78
2023/01/13 06:10:24;;;;;;;5.93;2.20;;;;;;;;;;5001487;28;20025;-78
2023/01/13 06:12:50;;;;;;;11.68;3.15;;;;;;;;;;5017879;28;20026;-78
2023/01/13 06:15:15;;;;;;;9.77;2.58;;;;;;;;;;5017911;28;20036;-79
2023/01/13 06:17:41;;;;;;;8.93;2.00;;;;;;;;;;5035783;28;20033;-77
2023/01/13 06:20:07;;;;;;;8.38;2.47;;;;;;;;;;5018765;28;20473;-77
2023/01/13 06:22:38;;;;;;;6.82;2.28;;;;;;;;;;5030863;28;20046;-77
2023/01/13 06:25:10;;;;;;;10.88;2.95;;;;;;;;;;5018408;28;20025;-78
2023/01/13 06:27:35;;;;;;;7.05;2.47;;;;;;;;;;5034854;28;20022;-79
2023/01/13 06:30:01;;;;;;;7.70;2.28;;;;;;;;;;5034374;28;20088;-78
2023/01/13 06:32:30;;;;;;;9.20;2.20;;;;;;;;;;5035430;28;20053;-78
2023/01/13 06:35:03;;;;;;;6.60;2.15;;;;;;;;;;5034560;28;20026;-77
2023/01/13 06:37:29;;;;;;;6.18;2.15;;;;;;;;;;5034164;28;20388;-77
2023/01/13 06:39:57;;;;;;;6.75;2.60;;;;;;;;;;5033955;28;20033;-77
2023/01/13 06:45:14;;;;;;;8.77;2.40;;;;;;;;;;5034230;28;20041;-78
2023/01/13 06:47:40;;;;;;;8.65;2.53;;;;;;;;;;5034024;28;20400;-77
2023/01/13 06:50:06;;;;;;;9.73;2.28;;;;;;;;;;5034362;28;20029;-78
2023/01/13 06:52:31;;;;;;;8.23;2.33;;;;;;;;;;5033832;28;20432;-78
2023/01/13 06:54:56;;;;;;;4.75;1.85;;;;;;;;;;5033729;28;20033;-78
2023/01/13 06:57:23;;;;;;;6.05;1.95;;;;;;;;;;5034979;28;20059;-78
2023/01/13 06:59:48;;;;;;;9.23;2.78;;;;;;;;;;5017239;28;20025;-77
2023/01/13 07:02:14;;;;;;;7.50;2.83;;;;;;;;;;5033746;28;20029;-77
2023/01/13 07:04:39;;;;;;;6.63;2.22;;;;;;;;;;5035166;28;20071;-77
2023/01/13 07:07:04;;;;;;;10.93;2.50;;;;;;;;;;5034796;28;20037;-78
2023/01/13 07:09:30;;;;;;;6.88;2.05;;;;;;;;;;5034197;28;20104;-77
2023/01/13 07:11:55;;;;;;;4.82;2.00;;;;;;;;;;5034794;28;20040;-78
2023/01/13 07:17:04;;;;;;;7.47;2.15;;;;;;;;;;5033615;28;20163;-77
2023/01/13 07:19:30;;;;;;;8.27;1.90;;;;;;;;;;5034609;28;20064;-78
2023/01/13 07:21:55;;;;;;;9.68;2.50;;;;;;;;;;5009187;28;20490;-78
2023/01/13 07:24:21;;;;;;;9.15;2.00;;;;;;;;;;5035011;28;20051;-78
2023/01/13 07:26:46;;;;;;;6.55;2.33;;;;;;;;;;5017004;28;20124;-78
2023/01/13 07:29:12;;;;;;;4.55;2.00;;;;;;;;;;5034963;28;20109;-77
2023/01/13 07:31:38;;;;;;;6.88;1.90;;;;;;;;;;5016621;28;20109;-78
2023/01/13 07:34:05;;;;;;;9.32;2.97;;;;;;;;;;5016681;28;20037;-77
2023/01/13 07:36:30;;;;;;;7.70;2.30;;;;;;;;;;5016904;28;20108;-78
2023/01/13 07:38:56;;;;;;;4.20;1.63;;;;;;;;;;5017075;28;20121;-77
2023/01/13 07:44:05;;;;;;;8.38;2.20;;;;;;;;;;5019397;28;20036;-77
2023/01/13 07:46:32;;;;;;;8.43;2.30;;;;;;;;;;4999982;28;20037;-77
2023/01/13 07:48:57;;;;;;;8.52;2.15;;;;;;;;;;5016228;28;20025;-78
2023/01/13 07:51:22;;;;;;;5.25;2.10;;;;;;;;;;5016180;28;20036;-77
2023/01/13 07:53:48;;;;;;;7.90;2.45;;;;;;;;;;4999247;28;20457;-77
2023/01/13 07:56:14;;;;;;;6.22;2.30;;;;;;;;;;5016135;28;20144;-77
2023/01/13 07:58:39;;;;;;;7.68;2.42;;;;;;;;;;4983547;28;20033;-77
2023/01/13 08:01:09;;;;;;;6.25;2.15;;;;;;;;;;5033663;28;20033;-77
2023/01/13 08:03:34;;;;;;;8.13;2.13;;;;;;;;;;5016043;28;20033;-78
2023/01/13 08:06:00;;;;;;;6.88;2.40;;;;;;;;;;4999687;28;20036;-79
2023/01/13 08:08:26;;;;;;;9.07;2.38;;;;;;;;;;5015981;28;20040;-78
2023/01/13 08:10:51;;;;;;;7.15;2.80;;;;;;;;;;5033566;28;20025;-79
2023/01/13 08:13:21;;;;;;;11.02;2.67;;;;;;;;;;4999427;28;20488;-78
2023/01/13 08:15:48;;;;;;;10.35;3.08;;;;;;;;;;5016655;28;20057;-78
2023/01/13 08:18:16;;;;;;;9.68;2.70;;;;;;;;;;5033576;28;20021;-79
2023/01/13 08:20:41;;;;;;;10.60;2.38;;;;;;;;;;5016755;28;20030;-80
2023/01/13 08:23:07;;;;;;;9.85;2.80;;;;;;;;;;5045628;28;20063;-79
2023/01/13 08:25:32;;;;;;;7.13;2.33;;;;;;;;;;5035825;28;20040;-79
2023/01/13 08:28:00;;;;;;;10.82;2.25;;;;;;;;;;5053387;28;20561;-79
2023/01/13 08:30:26;;;;;;;13.55;2.60;;;;;;;;;;5036234;28;20029;-79
2023/01/13 08:32:52;;;;;;;8.93;2.17;;;;;;;;;;5035691;28;20106;-80
2023/01/13 08:35:17;;;;;;;5.47;2.00;;;;;;;;;;5035533;28;20486;-79
2023/01/13 08:37:44;;;;;;;10.25;2.28;;;;;;;;;;5053473;28;20132;-79
2023/01/13 08:40:10;;;;;;;6.55;2.03;;;;;;;;;;5019420;28;20476;-79
2023/01/13 08:42:36;;;;;;;5.85;1.65;;;;;;;;;;5035649;28;20087;-79
2023/01/13 08:45:02;;;;;;;4.47;2.47;;;;;;;;;;5052907;28;20487;-79
2023/01/13 08:47:27;;;;;;;7.28;1.95;;;;;;;;;;5035543;28;20033;-79
2023/01/13 08:49:53;;;;;;;7.78;2.15;;;;;;;;;;5052620;28;20495;-79
2023/01/13 08:52:19;;;;;;;5.97;2.03;;;;;;;;;;5034610;28;20083;-78
2023/01/13 08:54:44;;;;;;;6.20;2.05;;;;;;;;;;5034833;28;20079;-77
2023/01/13 08:57:10;;;;;;;8.45;1.88;;;;;;;;;;5052487;28;20057;-78
2023/01/13 08:59:35;;;;;;;7.78;1.80;;;;;;;;;;5018280;28;20036;-78
2023/01/13 09:02:01;;;;;;;6.60;2.35;;;;;;;;;;5034753;28;20029;-77
2023/01/13 09:04:27;;;;;;;9.45;2.10;;;;;;;;;;5037713;28;20028;-78
2023/01/13 09:06:54;;;;;;;7.63;2.30;;;;;;;;;;5038726;28;20059;-77
2023/01/13 09:09:20;;;;;;;5.35;1.90;;;;;;;;;;5038780;28;20083;-78
2023/01/13 09:14:34;;;;;;;13.52;2.22;;;;;;;;;;5021136;28;20032;-77
2023/01/13 09:16:59;;;;;;;7.25;2.03;;;;;;;;;;5034923;28;20053;-78
2023/01/13 09:19:26;;;;;;;11.65;2.75;;;;;;;;;;5018441;28;20052;-78
2023/01/13 09:21:51;;;;;;;10.95;2.60;;;;;;;;;;5051320;28;20030;-78
2023/01/13 09:24:18;;;;;;;5.47;2.10;;;;;;;;;;5036035;28;20074;-78
2023/01/13 09:26:44;;;;;;;7.57;2.22;;;;;;;;;;5002091;28;20075;-79
2023/01/13 09:29:09;;;;;;;6.05;2.15;;;;;;;;;;5018086;28;20344;-78
2023/01/13 09:31:34;;;;;;;5.85;2.10;;;;;;;;;;5018110;28;20030;-78
2023/01/13 09:36:45;;;;;;;9.32;2.17;;;;;;;;;;5035941;28;20682;-78
2023/01/13 09:39:11;;;;;;;7.63;2.17;;;;;;;;;;5001811;28;20033;-78
2023/01/13 09:45:04;;;;;;;6.13;1.88;;;;;;;;;;5035583;28;20036;-78
2023/01/13 09:47:55;;;;;;;8.25;2.25;;;;;;;;;;4955217;29;20031;-79
2023/01/13 09:50:53;;;;;;;7.20;2.00;;;;;;;;;;4955063;29;20081;-79
2023/01/13 09:53:23;;;;;;;6.72;2.00;;;;;;;;;;4920383;29;20047;-77
2023/01/13 09:55:49;;;;;;;7.97;2.45;;;;;;;;;;4954984;28;20176;-77
2023/01/13 09:58:16;;;;;;;9.07;2.17;;;;;;;;;;4955050;29;20035;-78
2023/01/13 10:01:20;;;;;;;8.27;2.20;;;;;;;;;;4971221;28;20031;-78
2023/01/13 10:03:48;;;;;;;7.32;2.15;;;;;;;;;;4954952;29;20043;-79
2023/01/13 10:06:21;;;;;;;7.35;2.42;;;;;;;;;;4954884;29;20035;-79
2023/01/13 10:08:48;;;;;;;5.93;1.85;;;;;;;;;;4970711;28;20083;-79
2023/01/13 10:14:41;;;;;;;6.63;2.60;;;;;;;;;;4941283;29;20045;-78
2023/01/13 10:17:07;;;;;;;14.25;2.08;;;;;;;;;;4954005;29;20043;-78
2023/01/13 10:19:59;;;;;;;5.50;1.80;;;;;;;;;;4954523;29;20127;-78
2023/01/13 10:22:43;;;;;;;7.38;2.33;;;;;;;;;;4958799;28;20045;-79
2023/01/13 10:25:36;;;;;;;7.93;2.35;;;;;;;;;;5034954;28;20025;-79
2023/01/13 10:28:08;;;;;;;7.22;2.25;;;;;;;;;;5017241;28;20341;-78
2023/01/13 10:30:40;;;;;;;7.15;2.42;;;;;;;;;;5017077;28;20021;-78
2023/01/13 10:33:12;;;;;;;7.07;2.08;;;;;;;;;;5034869;28;20038;-79
2023/01/13 10:36:00;;;;;;;6.72;2.13;;;;;;;;;;5017071;28;20049;-78
2023/01/13 10:38:34;;;;;;;7.65;2.17;;;;;;;;;;5033414;28;20076;-78
2023/01/13 10:41:07;;;;;;;6.38;2.05;;;;;;;;;;5034582;28;20025;-78
2023/01/13 10:43:33;;;;;;;6.17;2.23;;;;;;;;;;5016761;28;20476;-78
2023/01/13 10:46:05;;;;;;;8.82;2.00;;;;;;;;;;5034579;28;20043;-78
2023/01/13 10:48:40;;;;;;;5.55;1.95;;;;;;;;;;5016839;28;20053;-78
2023/01/13 10:51:25;;;;;;;8.18;2.05;;;;;;;;;;5016779;28;20034;-78
2023/01/13 10:54:00;;;;;;;7.53;2.30;;;;;;;;;;5033736;28;20049;-78
2023/01/13 10:56:29;;;;;;;6.55;1.92;;;;;;;;;;5016777;28;20032;-78
2023/01/13 10:59:21;;;;;;;7.53;2.17;;;;;;;;;;5016557;28;20037;-78
2023/01/13 11:01:56;;;;;;;6.05;2.10;;;;;;;;;;5016636;28;20049;-78
2023/01/13 11:04:53;;;;;;;9.18;2.33;;;;;;;;;;5016394;28;20051;-78
2023/01/13 11:07:29;;;;;;;7.45;2.60;;;;;;;;;;5006870;28;20049;-79
2023/01/13 11:10:26;;;;;;;6.00;1.98;;;;;;;;;;5033957;28;20026;-79
2023/01/13 11:12:58;;;;;;;8.00;2.30;;;;;;;;;;5028975;28;20128;-77
2023/01/13 11:15:37;;;;;;;6.13;2.13;;;;;;;;;;5016059;28;20022;-78
2023/01/13 11:18:09;;;;;;;5.97;2.13;;;;;;;;;;5016232;28;20164;-77
2023/01/13 11:20:36;;;;;;;7.35;2.08;;;;;;;;;;4999789;28;20495;-79
2023/01/13 11:23:10;;;;;;;5.65;2.13;;;;;;;;;;5016046;28;20053;-79
2023/01/13 11:25:43;;;;;;;;;;;;;;;;;;5033030;28;20021;-77
2023/01/13 11:28:32;;;;;;;5.50;1.98;;;;;;;;;;5048792;28;19916;-79
2023/01/13 11:31:10;;;;;;;7.03;2.30;;;;;;;;;;5015942;28;20033;-78
2023/01/13 11:34:24;;;;;;;7.88;2.40;;;;;;;;;;5016503;28;20380;-79
2023/01/13 11:36:51;;;;;;;7.00;2.20;;;;;;;;;;4991220;28;20033;-78
2023/01/13 11:39:16;;;;;;;8.95;2.45;;;;;;;;;;5016521;28;20030;-79
2023/01/13 11:44:54;;;;;;;8.02;2.55;;;;;;;;;;5019118;28;20076;-80
2023/01/13 11:47:22;;;;;;;5.07;2.08;;;;;;;;;;4999942;28;20076;-79
2023/01/13 11:49:48;;;;;;;6.60;1.98;;;;;;;;;;5016169;28;20045;-79
2023/01/13 11:52:22;;;;;;;6.85;1.92;;;;;;;;;;5016412;28;20530;-79
2023/01/13 11:55:30;;;;;;;8.60;2.15;;;;;;;;;;5016093;28;20025;-79
2023/01/13 11:58:10;;;;;;;11.20;2.22;;;;;;;;;;5033913;28;20048;-79
2023/01/13 12:00:52;;;;;;;5.30;1.90;;;;;;;;;;5034113;28;20520;-78
2023/01/13 12:03:34;;;;;;;4.05;1.75;;;;;;;;;;5016268;28;20112;-78
2023/01/13 12:06:17;;;;;;;6.65;2.00;;;;;;;;;;5016036;28;20105;-78
2023/01/13 12:08:58;;;;;;;6.97;2.10;;;;;;;;;;5033835;28;20021;-79
2023/01/13 12:12:17;;;;;;;4.28;1.85;;;;;;;;;;5033618;28;20037;-79
2023/01/13 12:14:31;;;;;;;6.45;1.67;;;;;;;;;;5018796;28;20539;-79
2023/01/13 12:16:57;;;;;;;5.47;1.77;;;;;;;;;;5016231;28;20120;-78
2023/01/13 12:19:26;;;;;;;12.52;2.50;;;;;;;;;;5016126;28;20495;-78
2023/01/13 12:22:19;;;;;;;6.78;2.28;;;;;;;;;;5015843;28;20014;-78
2023/01/13 12:24:59;;;;;;;10.00;2.40;;;;;;;;;;5016026;28;20057;-79
2023/01/13 12:27:45;;;;;;;11.57;2.58;;;;;;;;;;5033523;28;20059;-79
2023/01/13 12:30:16;;;;;;;10.70;2.30;;;;;;;;;;5015992;28;20087;-78
2023/01/13 12:32:43;;;;;;;9.38;2.67;;;;;;;;;;5015721;28;20026;-79
2023/01/13 12:35:40;;;;;;;6.93;2.65;;;;;;;;;;4999377;28;20033;-80
2023/01/13 12:38:34;;;;;;;6.97;1.90;;;;;;;;;;5015393;28;20017;-79
2023/01/13 12:41:09;;;;;;;12.20;2.13;;;;;;;;;;5033524;28;20029;-78
2023/01/13 12:46:20;;;;;;;4.90;2.00;;;;;;;;;;5033432;28;20037;-79
2023/01/13 12:48:45;;;;;;;4.85;1.80;;;;;;;;;;5033522;28;20500;-78
2023/01/13 12:51:31;;;;;;;8.85;1.70;;;;;;;;;;5015964;28;20042;-77
2023/01/13 12:53:58;;;;;;;8.75;2.10;;;;;;;;;;5032333;28;20036;-79
2023/01/13 12:56:23;;;;;;;7.75;1.90;;;;;;;;;;5015710;28;20029;-79
2023/01/13 12:58:49;;;;;;;6.05;2.03;;;;;;;;;;5015620;28;20029;-79
2023/01/13 13:01:15;;;;;;;4.80;1.60;;;;;;;;;;5033357;28;20037;-79
2023/01/13 13:03:40;;;;;;;7.18;1.80;;;;;;;;;;5015465;28;20029;-78
2023/01/13 13:06:17;;;;;;;5.85;1.90;;;;;;;;;;5015474;28;20030;-79
2023/01/13 13:09:04;;;;;;;5.50;2.03;;;;;;;;;;5015522;28;20048;-79
2023/01/13 13:14:36;;;;;;;8.30;2.33;;;;;;;;;;5032982;28;20622;-79
2023/01/13 13:17:28;;;;;;;7.63;2.08;;;;;;;;;;5015142;28;20104;-80
2023/01/13 13:19:55;;;;;;;7.40;1.90;;;;;;;;;;4987642;28;20427;-80
2023/01/13 13:22:36;;;;;;;5.38;1.88;;;;;;;;;;4998748;28;20068;-79
2023/01/13 13:25:01;;;;;;;9.23;2.03;;;;;;;;;;5015879;28;20032;-79
2023/01/13 13:27:41;;;;;;;8.63;1.98;;;;;;;;;;5033043;28;20025;-77
2023/01/13 13:30:48;;;;;;;5.53;1.55;;;;;;;;;;4999325;28;20383;-75
2023/01/13 13:33:32;;;;;;;8.88;1.90;;;;;;;;;;5024430;28;20042;-77
2023/01/13 13:36:06;;;;;;;7.78;1.80;;;;;;;;;;5032841;28;20026;-77
2023/01/13 13:47:12;;;;;;;6.13;1.70;;;;;;;;;;5017528;28;20448;-77
2023/01/13 13:49:48;;;;;;;6.50;1.80;;;;;;;;;;5014711;28;20029;-79
2023/01/13 13:52:21;;;;;;;4.00;1.60;;;;;;;;;;5018123;28;20025;-79
2023/01/13 13:54:49;;;;;;;7.60;1.80;;;;;;;;;;5018722;28;20384;-79
2023/01/13 13:57:20;;;;;;;5.00;1.70;;;;;;;;;;5018703;28;20018;-79
2023/01/13 13:59:49;;;;;;;6.05;2.20;;;;;;;;;;5002094;28;20029;-79
2023/01/13 14:02:19;;;;;;;3.85;1.63;;;;;;;;;;5018527;28;20021;-79
2023/01/13 14:04:44;;;;;;;5.43;1.60;;;;;;;;;;5018756;28;20412;-79
2023/01/13 14:07:19;;;;;;;4.50;1.33;;;;;;;;;;5051491;28;20017;-79
2023/01/13 14:09:55;;;;;;;6.30;1.85;;;;;;;;;;5001833;28;20083;-77
2023/01/13 14:12:22;;;;;;;5.30;1.88;;;;;;;;;;5018529;28;20029;-77
2023/01/13 14:14:49;;;;;;;4.15;1.40;;;;;;;;;;5036206;28;20433;-78
2023/01/13 14:17:25;;;;;;;3.70;1.48;;;;;;;;;;5018352;28;20051;-78
2023/01/13 14:20:09;;;;;;;5.00;1.55;;;;;;;;;;5018312;28;20037;-76
2023/01/13 14:22:34;;;;;;;3.85;1.48;;;;;;;;;;5014665;28;20048;-78
2023/01/13 14:25:00;;;;;;;3.33;1.35;;;;;;;;;;5015256;28;20417;-78
2023/01/13 14:27:28;;;;;;;11.13;1.90;;;;;;;;;;5015836;28;20543;-77
2023/01/13 14:29:55;;;;;;;5.25;1.63;;;;;;;;;;5014538;28;20034;-79
2023/01/13 14:32:22;;;;;;;5.53;1.48;;;;;;;;;;5014403;28;20049;-80
2023/01/13 14:34:47;;;;;;;4.78;1.40;;;;;;;;;;5014421;28;20076;-80
2023/01/13 14:37:31;;;;;;;4.90;1.60;;;;;;;;;;5014359;28;20108;-77
2023/01/13 14:39:56;;;;;;;3.72;1.65;;;;;;;;;;5015594;28;20029;-79
2023/01/13 14:42:22;;;;;;;5.38;1.70;;;;;;;;;;5014308;28;20084;-81
2023/01/13 14:44:49;;;;;;;8.27;1.63;;;;;;;;;;5014256;28;20041;-80
2023/01/13 14:47:27;;;;;;;6.38;1.58;;;;;;;;;;5014200;28;20037;-80
2023/01/13 14:50:10;;;;;;;4.55;1.27;;;;;;;;;;5014387;28;20034;-80
2023/01/13 14:52:46;;;;;;;11.50;1.70;;;;;;;;;;5014060;28;20050;-80
2023/01/13 14:55:18;;;;;;;7.53;1.65;;;;;;;;;;5015265;28;20313;-80
2023/01/13 14:57:43;;;;;;;5.07;1.60;;;;;;;;;;5015358;28;20029;-79
2023/01/13 15:00:15;;;;;;;3.88;1.30;;;;;;;;;;5013979;28;20034;-80
2023/01/13 15:02:49;;;;;;;3.88;1.40;;;;;;;;;;5013458;28;20108;-81
2023/01/13 15:05:23;;;;;;;3.30;1.50;;;;;;;;;;5014193;28;20033;-80
2023/01/13 15:07:51;;;;;;;8.48;1.65;;;;;;;;;;5015189;28;20552;-80
2023/01/13 15:10:26;;;;;;;4.03;1.55;;;;;;;;;;5013666;28;20026;-80
2023/01/13 15:12:53;;;;;;;6.57;1.50;;;;;;;;;;5030185;28;20037;-79
2023/01/13 15:15:36;;;;;;;7.00;1.60;;;;;;;;;;5047036;28;20216;-81
2023/01/13 15:18:10;;;;;;;3.70;1.20;;;;;;;;;;5013670;28;20054;-79
2023/01/13 15:20:36;;;;;;;5.22;1.80;;;;;;;;;;5014242;28;20034;-80
2023/01/13 15:23:01;;;;;;;5.70;2.00;;;;;;;;;;5013410;28;20058;-80
2023/01/13 15:25:38;;;;;;;3.90;1.40;;;;;;;;;;5013585;28;20477;-80
2023/01/13 15:28:05;;;;;;;6.75;1.80;;;;;;;;;;5014641;28;20547;-80
2023/01/13 15:30:31;;;;;;;6.35;1.88;;;;;;;;;;5014706;28;20136;-81
2023/01/13 15:32:58;;;;;;;5.47;1.52;;;;;;;;;;5013676;28;20030;-81
2023/01/13 15:35:25;;;;;;;4.15;1.45;;;;;;;;;;5029703;28;20026;-80
2023/01/13 15:37:51;;;;;;;6.05;1.75;;;;;;;;;;5029681;28;20029;-80
2023/01/13 15:40:21;;;;;;;4.30;1.90;;;;;;;;;;4997190;28;20034;-80
2023/01/13 15:48:15;;;;;;;4.57;1.50;;;;;;;;;;5027668;28;20077;-81
2023/01/13 15:50:41;;;;;;;10.50;2.28;;;;;;;;;;5014794;28;20042;-80
2023/01/13 15:53:07;;;;;;;6.93;1.90;;;;;;;;;;4996514;28;20041;-81
2023/01/13 15:55:34;;;;;;;4.10;1.63;;;;;;;;;;5012929;28;20026;-81
2023/01/13 15:58:00;;;;;;;3.75;1.70;;;;;;;;;;5012905;28;20112;-80
2023/01/13 16:00:26;;;;;;;4.00;1.58;;;;;;;;;;5029522;28;20034;-79
2023/01/13 16:02:51;;;;;;;4.07;1.45;;;;;;;;;;5012764;28;20040;-80
2023/01/13 16:05:16;;;;;;;3.55;1.40;;;;;;;;;;5012738;28;20033;-80
2023/01/13 16:07:42;;;;;;;4.63;1.63;;;;;;;;;;5014084;28;20473;-80
2023/01/13 16:10:18;;;;;;;6.60;1.58;;;;;;;;;;5012600;28;20034;-81